Time;durP1;ratioP1;P1;durP2;ratioP2;P2;SDS_P1;SDS_P2;PMS_P1;PMS_P2;Temp;Humidity;BMP_temperature;BMP_pressure;BME280_temperature;BME280_humidity;BME280_pressure;Samples;Min_cycle;Max_cycle;Signal;HPM_P1;HPM_P2
2023/10/05 00:01:12;;;;;;;3.17;1.50;;;;;;;7.68;100.00;98766.66;6257186;28;20222;-59
2023/10/05 00:04:15;;;;;;;2.97;1.40;;;;;;;7.58;100.00;98768.03;6236151;28;20301;-59
2023/10/05 00:07:26;;;;;;;1.83;1.43;;;;;;;7.57;100.00;98766.38;6260812;28;20728;-56
2023/10/05 00:10:30;;;;;;;4.07;1.20;;;;;;;7.50;100.00;98759.22;6255300;28;20285;-59
2023/10/05 00:13:34;;;;;;;3.70;1.50;;;;;;;7.45;100.00;98758.19;6252867;28;20266;-57
2023/10/05 00:16:37;;;;;;;4.30;1.67;;;;;;;7.34;100.00;98741.00;6258125;28;20227;-59
2023/10/05 00:19:40;;;;;;;2.13;1.37;;;;;;;7.49;100.00;98747.00;6257524;28;20231;-60
2023/10/05 00:22:43;;;;;;;1.50;1.10;;;;;;;7.58;100.00;98749.47;6238258;28;20239;-59
2023/10/05 00:25:45;;;;;;;2.23;1.30;;;;;;;7.51;100.00;98722.91;6245356;28;20234;-59
2023/10/05 00:29:00;;;;;;;2.20;1.50;;;;;;;7.63;100.00;98736.44;6254055;28;20395;-54
2023/10/05 00:32:06;;;;;;;3.27;1.13;;;;;;;7.57;100.00;98726.63;6237812;28;20312;-55
2023/10/05 00:35:20;;;;;;;2.50;1.33;;;;;;;7.48;100.00;98733.91;6233469;28;20223;-56
2023/10/05 00:38:24;;;;;;;1.67;1.17;;;;;;;7.47;100.00;98737.56;6257140;28;20644;-58
2023/10/05 00:41:26;;;;;;;2.50;1.27;;;;;;;7.45;100.00;98735.13;6235072;28;20239;-59
2023/10/05 00:44:30;;;;;;;2.13;1.30;;;;;;;7.50;100.00;98745.97;6257077;28;20266;-58
2023/10/05 00:47:33;;;;;;;2.90;1.10;;;;;;;7.46;100.00;98738.59;6256338;28;20605;-59
2023/10/05 00:50:36;;;;;;;1.23;1.03;;;;;;;7.40;100.00;98739.38;6246259;28;20318;-59
2023/10/05 00:53:41;;;;;;;2.20;1.23;;;;;;;7.28;99.88;98735.63;6256202;28;20377;-58
2023/10/05 00:56:45;;;;;;;1.77;1.30;;;;;;;7.16;100.00;98732.72;6256159;28;20725;-56
2023/10/05 01:03:27;;;;;;;2.53;1.23;;;;;;;7.01;100.00;98734.63;6200329;28;20232;-59
2023/10/05 01:06:37;;;;;;;2.83;1.40;;;;;;;6.95;100.00;98729.09;6253749;28;20226;-59
2023/10/05 01:09:55;;;;;;;3.23;1.20;;;;;;;6.93;100.00;98725.00;6234997;28;20266;-59
2023/10/05 01:13:00;;;;;;;1.57;1.20;;;;;;;6.86;100.00;98721.50;6251610;28;20247;-60
2023/10/05 01:16:21;;;;;;;1.80;1.37;;;;;;;6.81;100.00;98731.84;6251043;28;20260;-58
2023/10/05 01:19:24;;;;;;;2.37;1.20;;;;;;;6.69;100.00;98740.28;6254672;28;20320;-59
2023/10/05 01:22:33;;;;;;;1.70;1.27;;;;;;;6.59;100.00;98733.69;6237952;28;20237;-58
2023/10/05 01:25:36;;;;;;;2.47;1.20;;;;;;;6.46;100.00;98721.16;6253292;28;20231;-59
2023/10/05 01:28:41;;;;;;;1.53;1.10;;;;;;;6.52;100.00;98728.34;6252611;28;20241;-58
2023/10/05 01:31:44;;;;;;;1.27;1.00;;;;;;;6.46;100.00;98734.38;6250261;28;20227;-59
2023/10/05 01:34:50;;;;;;;3.00;1.73;;;;;;;6.41;100.00;98727.03;6258128;28;20245;-59
2023/10/05 01:37:53;;;;;;;1.93;1.30;;;;;;;6.40;100.00;98722.75;6259110;28;20295;-59
2023/10/05 01:40:58;;;;;;;2.70;1.13;;;;;;;6.40;100.00;98714.78;6253032;28;20241;-58
2023/10/05 01:44:00;;;;;;;1.57;1.00;;;;;;;6.47;100.00;98720.16;6253051;28;20241;-58
2023/10/05 01:47:03;;;;;;;1.97;1.30;;;;;;;6.51;100.00;98712.66;6254349;28;20242;-58
2023/10/05 01:50:06;;;;;;;2.37;1.30;;;;;;;6.54;100.00;98712.25;6251914;28;20262;-56
2023/10/05 01:53:14;;;;;;;2.77;1.00;;;;;;;6.49;100.00;98694.28;6242258;28;20236;-58
2023/10/05 01:56:21;;;;;;;1.60;1.13;;;;;;;6.49;100.00;98710.16;6242277;28;20246;-55
2023/10/05 01:59:24;;;;;;;2.57;1.40;;;;;;;6.47;100.00;98707.72;6235017;28;20294;-58
2023/10/05 02:02:29;;;;;;;2.00;1.23;;;;;;;6.47;100.00;98715.66;6253529;28;20230;-55
2023/10/05 02:05:32;;;;;;;4.33;1.50;;;;;;;6.40;100.00;98714.78;6257615;28;20256;-58
2023/10/05 02:08:36;;;;;;;1.70;1.23;;;;;;;6.33;100.00;98707.78;6257551;28;20336;-60
2023/10/05 02:11:40;;;;;;;1.20;0.93;;;;;;;6.32;100.00;98714.91;6251234;28;20400;-60
2023/10/05 02:14:44;;;;;;;1.37;1.07;;;;;;;6.39;100.00;98707.03;6253063;28;20234;-60
2023/10/05 02:17:48;;;;;;;2.13;1.27;;;;;;;6.44;100.00;98692.22;6253044;28;20241;-56
2023/10/05 02:20:56;;;;;;;1.40;1.20;;;;;;;6.52;100.00;98685.16;6251349;28;20599;-59
2023/10/05 02:24:08;;;;;;;3.27;1.30;;;;;;;6.47;100.00;98689.19;6251560;28;20228;-58
2023/10/05 02:27:17;;;;;;;2.07;1.30;;;;;;;6.38;100.00;98686.88;6250884;28;20707;-60
2023/10/05 02:30:27;;;;;;;2.27;1.37;;;;;;;6.26;100.00;98683.94;6235176;28;20211;-59
2023/10/05 02:33:31;;;;;;;2.13;1.10;;;;;;;6.16;100.00;98688.72;6252410;28;20372;-57
2023/10/05 02:36:34;;;;;;;1.93;1.03;;;;;;;6.13;100.00;98675.84;6230020;28;20581;-57
2023/10/05 02:39:40;;;;;;;1.70;1.20;;;;;;;6.13;100.00;98683.78;6253727;28;20329;-60
2023/10/05 02:42:43;;;;;;;2.47;1.50;;;;;;;6.06;100.00;98677.59;6250997;28;20711;-57
2023/10/05 02:45:45;;;;;;;1.63;1.37;;;;;;;5.99;100.00;98679.38;6253398;28;20238;-56
2023/10/05 02:48:47;;;;;;;1.97;1.40;;;;;;;5.90;100.00;98683.91;6235509;28;20257;-55
2023/10/05 02:51:52;;;;;;;4.63;1.90;;;;;;;5.85;100.00;98681.81;6252909;28;20234;-60
2023/10/05 02:54:55;;;;;;;1.70;0.97;;;;;;;5.81;100.00;98677.09;6250061;28;20320;-58
2023/10/05 02:57:59;;;;;;;2.40;1.30;;;;;;;5.79;100.00;98676.47;6252039;28;20238;-57
2023/10/05 03:01:09;;;;;;;1.30;1.10;;;;;;;5.75;100.00;98676.03;6253080;28;20237;-59
2023/10/05 03:07:18;;;;;;;2.53;1.43;;;;;;;5.67;100.00;98681.44;6230382;28;20233;-60
2023/10/05 03:10:23;;;;;;;3.00;1.53;;;;;;;5.66;100.00;98683.25;6254054;28;20244;-59
2023/10/05 03:13:27;;;;;;;2.80;1.20;;;;;;;5.66;100.00;98683.25;6234390;28;20243;-59
2023/10/05 03:16:29;;;;;;;2.00;1.50;;;;;;;5.69;100.00;98688.16;6226831;28;20244;-58
2023/10/05 03:19:36;;;;;;;2.87;1.10;;;;;;;5.64;100.00;98682.59;6235304;28;20241;-58
2023/10/05 03:22:39;;;;;;;3.27;1.40;;;;;;;5.66;100.00;98674.50;6252900;28;20242;-59
2023/10/05 03:25:41;;;;;;;1.40;1.23;;;;;;;5.68;100.00;98680.44;6236499;28;20225;-58
2023/10/05 03:28:44;;;;;;;2.63;1.67;;;;;;;5.68;100.00;98685.72;6252706;28;20244;-54
2023/10/05 03:32:04;;;;;;;1.40;1.17;;;;;;;5.65;100.00;98680.78;6234336;28;20711;-60
2023/10/05 03:35:11;;;;;;;3.10;1.40;;;;;;;5.64;100.00;98685.25;6247475;28;20248;-54
2023/10/05 03:38:19;;;;;;;2.37;1.30;;;;;;;5.53;100.00;98672.53;6236541;28;20232;-57
2023/10/05 03:41:28;;;;;;;2.17;1.47;;;;;;;5.67;100.00;98682.25;6258775;28;20241;-60
2023/10/05 03:44:31;;;;;;;2.37;1.43;;;;;;;5.70;100.00;98665.19;6251875;28;20368;-60
2023/10/05 03:47:37;;;;;;;2.20;1.10;;;;;;;5.85;100.00;98684.47;6244055;28;20451;-59
2023/10/05 03:50:42;;;;;;;2.37;1.67;;;;;;;5.84;100.00;98690.78;6254120;28;20732;-57
2023/10/05 03:53:51;;;;;;;3.03;1.20;;;;;;;5.76;100.00;98684.75;6255691;28;20241;-59
2023/10/05 03:57:10;;;;;;;3.83;1.40;;;;;;;5.63;100.00;98675.69;6260446;28;20242;-58
2023/10/05 04:00:35;;;;;;;1.50;1.17;;;;;;;5.70;100.00;98688.97;6233876;28;20237;-59
2023/10/05 04:03:40;;;;;;;2.80;1.80;;;;;;;5.67;100.00;98690.19;6238727;28;20238;-58
2023/10/05 04:06:44;;;;;;;2.30;1.37;;;;;;;5.67;100.00;98695.47;6256826;28;20233;-58
2023/10/05 04:09:47;;;;;;;1.70;1.10;;;;;;;5.66;100.00;98700.91;6255583;28;20778;-60
2023/10/05 04:12:51;;;;;;;1.57;1.20;;;;;;;5.66;100.00;98709.69;6256116;28;20711;-59
2023/10/05 04:15:53;;;;;;;3.07;1.80;;;;;;;5.57;100.00;98694.13;6256252;28;20261;-59
2023/10/05 04:18:58;;;;;;;2.90;1.40;;;;;;;5.58;100.00;98701.84;6259449;28;20237;-59
2023/10/05 04:22:01;;;;;;;2.53;1.80;;;;;;;5.56;100.00;98698.56;6255952;28;20234;-58
2023/10/05 04:25:04;;;;;;;3.83;1.70;;;;;;;5.56;100.00;98698.56;6257765;28;20238;-58
2023/10/05 04:28:07;;;;;;;2.43;1.30;;;;;;;5.58;100.00;98696.56;6256485;28;20242;-57
2023/10/05 04:31:13;;;;;;;1.47;1.33;;;;;;;5.55;100.00;98696.13;6255161;28;20258;-59
2023/10/05 04:34:18;;;;;;;1.57;1.43;;;;;;;5.62;100.00;98699.69;6258356;28;20241;-60
2023/10/05 04:37:21;;;;;;;2.57;1.70;;;;;;;5.65;100.00;98699.28;6258435;28;20235;-58
2023/10/05 04:40:24;;;;;;;3.23;1.57;;;;;;;5.52;100.00;98681.47;6256108;28;20707;-60
2023/10/05 04:43:27;;;;;;;3.57;1.53;;;;;;;5.63;100.00;98694.19;6257233;28;20226;-58
2023/10/05 04:46:30;;;;;;;8.57;2.00;;;;;;;5.57;100.00;98700.22;6256073;28;20257;-59
2023/10/05 04:49:35;;;;;;;4.20;1.77;;;;;;;5.54;100.00;98690.00;6255725;28;20313;-62
2023/10/05 04:52:39;;;;;;;6.97;1.67;;;;;;;5.53;100.00;98688.38;6252243;28;20234;-59
2023/10/05 04:55:42;;;;;;;2.67;1.60;;;;;;;5.56;100.00;98685.34;6255710;28;20833;-58
2023/10/05 04:59:18;;;;;;;4.73;1.63;;;;;;;5.62;100.00;98676.69;6251458;28;20255;-59
2023/10/05 05:02:22;;;;;;;5.37;1.60;;;;;;;5.65;100.00;98680.78;6256643;28;20224;-58
2023/10/05 05:08:53;;;;;;;3.70;1.90;;;;;;;5.64;100.00;98681.78;6236589;28;20233;-60
2023/10/05 05:12:08;;;;;;;2.93;1.70;;;;;;;5.62;100.00;98686.47;6254220;28;20242;-60
2023/10/05 05:15:10;;;;;;;2.53;1.80;;;;;;;5.60;100.00;98685.81;6253950;28;20239;-59
2023/10/05 05:18:16;;;;;;;2.93;1.83;;;;;;;5.59;100.00;98682.34;6243948;28;20213;-58
2023/10/05 05:21:19;;;;;;;2.30;1.70;;;;;;;5.60;100.00;98681.34;6255384;28;20770;-59
2023/10/05 05:24:21;;;;;;;4.23;1.70;;;;;;;5.61;100.00;98676.88;6253897;28;20238;-59
2023/10/05 05:27:23;;;;;;;3.07;1.63;;;;;;;5.62;100.00;98678.53;6254733;28;20610;-57
2023/10/05 05:30:25;;;;;;;4.07;2.43;;;;;;;5.64;100.00;98676.50;6253955;28;20229;-57
2023/10/05 05:33:27;;;;;;;2.43;1.60;;;;;;;5.69;100.00;98672.31;6230522;28;20226;-59
2023/10/05 05:36:29;;;;;;;4.47;1.97;;;;;;;5.74;100.00;98669.09;6254882;28;20305;-59
2023/10/05 05:39:40;;;;;;;3.33;1.80;;;;;;;5.75;100.00;98669.91;6254075;28;20623;-58
2023/10/05 05:42:46;;;;;;;3.17;2.07;;;;;;;5.79;100.00;98669.34;6256755;28;20241;-59
2023/10/05 05:45:49;;;;;;;9.37;2.20;;;;;;;5.81;100.00;98667.38;6254718;28;20232;-59
2023/10/05 05:48:52;;;;;;;4.17;2.10;;;;;;;5.73;100.00;98658.72;6253586;28;20255;-59
2023/10/05 05:51:58;;;;;;;3.90;1.90;;;;;;;5.78;100.00;98657.16;6255342;28;20246;-58
2023/10/05 05:55:10;;;;;;;2.60;1.80;;;;;;;5.92;100.00;98676.66;6253531;28;20245;-59
2023/10/05 05:58:14;;;;;;;3.27;1.57;;;;;;;5.95;100.00;98686.84;6253107;28;20243;-57
2023/10/05 06:01:17;;;;;;;3.53;1.60;;;;;;;6.01;100.00;98695.84;6252604;28;20747;-59
2023/10/05 06:04:19;;;;;;;2.23;1.43;;;;;;;6.05;100.00;98682.06;6255245;28;20273;-58
2023/10/05 06:07:25;;;;;;;2.90;1.90;;;;;;;6.12;100.00;98692.72;5375018;28;10000455;-56
2023/10/05 06:10:28;;;;;;;2.50;1.73;;;;;;;6.18;100.00;98699.91;6251113;28;20230;-58
2023/10/05 06:13:32;;;;;;;2.97;1.70;;;;;;;6.25;100.00;98697.31;6251543;28;20233;-58
2023/10/05 06:16:34;;;;;;;2.93;1.83;;;;;;;6.32;100.00;98706.16;6236382;28;20298;-60
2023/10/05 06:19:37;;;;;;;2.67;1.57;;;;;;;6.39;100.00;98705.19;6251272;28;20321;-60
2023/10/05 06:22:45;;;;;;;2.60;1.83;;;;;;;6.45;100.00;98707.09;6251491;28;20230;-59
2023/10/05 06:25:48;;;;;;;2.47;1.63;;;;;;;6.52;100.00;98703.69;6249922;28;20919;-60
2023/10/05 06:28:50;;;;;;;3.17;2.20;;;;;;;6.56;100.00;98707.59;6252335;28;20230;-55
2023/10/05 06:31:54;;;;;;;3.03;1.40;;;;;;;6.59;100.00;98709.84;6250943;28;20277;-59
2023/10/05 06:34:57;;;;;;;2.13;1.70;;;;;;;6.66;100.00;98700.16;6251384;28;20234;-58
2023/10/05 06:37:59;;;;;;;2.20;1.70;;;;;;;6.71;100.00;98708.34;6249323;28;20605;-57
2023/10/05 06:41:03;;;;;;;2.20;1.77;;;;;;;6.76;100.00;98690.03;6253150;28;20233;-56
2023/10/05 06:44:07;;;;;;;2.53;1.80;;;;;;;6.86;100.00;98695.81;6253938;28;20237;-59
2023/10/05 06:47:18;;;;;;;2.07;1.87;;;;;;;7.00;100.00;98696.75;6253143;28;20234;-58
2023/10/05 06:50:21;;;;;;;2.67;2.20;;;;;;;7.19;100.00;98695.19;6250990;28;20234;-57
2023/10/05 06:53:25;;;;;;;2.53;2.00;;;;;;;7.37;100.00;98687.56;6234561;28;20879;-57
2023/10/05 06:56:27;;;;;;;4.97;2.57;;;;;;;7.67;100.00;98685.44;6249687;28;20246;-57
2023/10/05 06:59:31;;;;;;;2.00;1.80;;;;;;;7.95;100.00;98687.19;6252626;28;20885;-58
2023/10/05 07:02:33;;;;;;;2.47;1.87;;;;;;;8.23;100.00;98695.84;6251469;28;20219;-57
2023/10/05 07:05:35;;;;;;;4.80;2.20;;;;;;;8.45;100.00;98695.69;6251311;28;20615;-59
2023/10/05 07:08:37;;;;;;;2.40;1.80;;;;;;;8.70;100.00;98695.91;6256961;28;20223;-54
2023/10/05 07:11:39;;;;;;;4.00;1.80;;;;;;;8.94;100.00;98699.78;6254952;28;20234;-56
2023/10/05 07:14:41;;;;;;;2.20;1.73;;;;;;;9.16;100.00;98697.69;6256092;28;20232;-57
2023/10/05 07:17:44;;;;;;;5.30;2.17;;;;;;;9.35;100.00;98707.47;6260369;28;20226;-58
2023/10/05 07:20:50;;;;;;;2.10;1.90;;;;;;;9.55;100.00;98696.75;6256097;28;20267;-57
2023/10/05 07:23:52;;;;;;;3.73;1.97;;;;;;;9.67;100.00;98680.97;6256068;28;20244;-59
2023/10/05 07:26:54;;;;;;;4.03;1.97;;;;;;;9.96;100.00;98703.56;6256748;28;20228;-59
2023/10/05 07:29:56;;;;;;;2.00;1.60;;;;;;;10.17;100.00;98700.56;6257280;28;20228;-57
2023/10/05 07:32:59;;;;;;;3.20;2.13;;;;;;;10.41;100.00;98696.38;6256541;28;20234;-59
2023/10/05 07:36:22;;;;;;;3.67;2.33;;;;;;;10.66;100.00;98698.25;6253166;28;20242;-59
2023/10/05 07:39:24;;;;;;;3.40;2.40;;;;;;;10.89;100.00;98698.47;6254149;28;20953;-58
2023/10/05 07:42:28;;;;;;;4.40;2.20;;;;;;;11.07;100.00;98687.81;6256147;28;20248;-56
2023/10/05 07:45:31;;;;;;;3.33;2.00;;;;;;;11.28;100.00;98691.09;6255424;28;20249;-58
2023/10/05 07:48:33;;;;;;;2.27;2.07;;;;;;;11.44;100.00;98695.84;6255296;28;20238;-56
2023/10/05 07:51:36;;;;;;;4.07;2.47;;;;;;;11.60;100.00;98695.25;6256184;28;20727;-58
2023/10/05 07:54:39;;;;;;;2.43;2.03;;;;;;;11.74;100.00;98690.59;6254578;28;20237;-58
2023/10/05 07:57:42;;;;;;;3.87;2.37;;;;;;;11.94;100.00;98695.69;6256052;28;20241;-59
2023/10/05 08:00:45;;;;;;;2.67;2.03;;;;;;;12.07;99.27;98689.38;6254747;28;20266;-58
2023/10/05 08:03:48;;;;;;;3.27;2.00;;;;;;;12.22;98.43;98696.97;6254281;28;20357;-59
2023/10/05 08:06:50;;;;;;;2.90;1.83;;;;;;;12.35;97.73;98697.59;6255485;28;20241;-58
2023/10/05 08:09:55;;;;;;;3.10;1.90;;;;;;;12.48;97.08;98696.59;6254479;28;20234;-59
2023/10/05 08:12:59;;;;;;;2.83;1.87;;;;;;;12.64;96.39;98697.78;6255202;28;20246;-59
2023/10/05 08:16:01;;;;;;;3.63;2.20;;;;;;;12.82;93.57;98691.53;6256893;28;20380;-57
2023/10/05 08:19:05;;;;;;;2.03;1.80;;;;;;;13.00;93.44;98694.06;6253160;28;20218;-57
2023/10/05 08:22:09;;;;;;;2.63;1.93;;;;;;;13.14;94.25;98690.13;6254014;28;20296;-58
2023/10/05 08:25:11;;;;;;;3.27;1.90;;;;;;;13.29;91.57;98694.22;6255665;28;20223;-59
2023/10/05 08:28:19;;;;;;;4.57;1.73;;;;;;;13.42;91.75;98683.28;6254381;28;20234;-59
2023/10/05 08:31:25;;;;;;;3.83;2.20;;;;;;;13.58;88.05;98690.56;6238451;28;20235;-59
2023/10/05 08:34:32;;;;;;;3.47;2.13;;;;;;;13.67;88.83;98689.16;6254510;28;20242;-59
2023/10/05 08:37:42;;;;;;;4.13;2.13;;;;;;;13.77;89.93;98698.44;6255570;28;20231;-59
2023/10/05 08:40:45;;;;;;;2.70;1.60;;;;;;;13.76;89.86;98680.75;6251361;28;20909;-58
2023/10/05 08:43:48;;;;;;;2.40;1.70;;;;;;;13.93;89.13;98695.81;6254836;28;20228;-58
2023/10/05 08:46:50;;;;;;;3.27;1.87;;;;;;;14.00;88.10;98686.84;6253104;28;20239;-58
2023/10/05 08:49:52;;;;;;;2.43;1.50;;;;;;;14.10;87.11;98690.53;6254537;28;20321;-59
2023/10/05 08:52:55;;;;;;;3.70;1.87;;;;;;;14.23;87.37;98696.63;6237320;28;20750;-59
2023/10/05 08:55:59;;;;;;;2.70;1.70;;;;;;;14.32;84.64;98690.66;6255758;28;20377;-59
2023/10/05 08:59:07;;;;;;;2.93;1.60;;;;;;;14.57;79.19;98687.63;6254135;28;20720;-59
2023/10/05 09:02:10;;;;;;;3.13;1.80;;;;;;;15.35;63.35;98679.69;6254275;28;20232;-59
2023/10/05 09:05:15;;;;;;;4.30;2.20;;;;;;;15.72;60.50;98671.88;6253894;28;20227;-58
2023/10/05 09:08:17;;;;;;;4.03;1.97;;;;;;;15.92;59.43;98668.59;6254435;28;20702;-56
2023/10/05 09:11:26;;;;;;;3.37;1.70;;;;;;;16.05;58.75;98662.81;6233668;28;20231;-55
2023/10/05 09:14:35;;;;;;;4.30;1.90;;;;;;;16.16;61.06;98664.56;6253396;28;20241;-59
2023/10/05 09:18:00;;;;;;;3.90;1.57;;;;;;;16.17;66.16;98663.50;6254831;28;20712;-59
2023/10/05 09:21:03;;;;;;;2.07;1.60;;;;;;;16.12;62.25;98662.63;6254160;28;20254;-57
2023/10/05 09:24:25;;;;;;;3.17;1.90;;;;;;;16.23;56.43;98650.91;6249379;28;20349;-59
2023/10/05 09:27:47;;;;;;;5.13;2.17;;;;;;;16.31;57.57;98650.47;6253525;28;20227;-59
2023/10/05 09:30:57;;;;;;;3.80;1.70;;;;;;;16.43;60.25;98666.41;6232517;28;20602;-59
2023/10/05 09:34:05;;;;;;;1.63;1.43;;;;;;;16.37;60.94;98646.75;6253019;28;20223;-58
2023/10/05 09:37:10;;;;;;;3.03;1.77;;;;;;;16.71;54.63;98666.16;6251366;28;20606;-61
2023/10/05 09:40:17;;;;;;;4.03;1.97;;;;;;;16.80;55.38;98662.97;6253594;28;20239;-59
2023/10/05 09:43:22;;;;;;;3.17;1.90;;;;;;;17.02;52.11;98650.22;6252089;28;20273;-58
2023/10/05 09:46:27;;;;;;;4.53;2.03;;;;;;;16.98;53.41;98643.72;6253318;28;20607;-59
2023/10/05 09:49:31;;;;;;;3.10;2.13;;;;;;;17.06;56.38;98651.31;6252711;28;20607;-58
2023/10/05 09:52:37;;;;;;;5.43;1.60;;;;;;;17.22;54.04;98644.16;6253822;28;20280;-55
2023/10/05 09:55:40;;;;;;;4.63;1.97;;;;;;;17.34;52.24;98635.84;6253165;28;20235;-59
2023/10/05 09:58:45;;;;;;;2.93;1.80;;;;;;;17.34;52.72;98644.75;6250887;28;20239;-58
2023/10/05 10:01:57;;;;;;;4.47;1.90;;;;;;;17.41;51.35;98639.94;6236236;27;20579;-57
2023/10/05 10:05:16;;;;;;;3.67;2.00;;;;;;;17.67;51.53;98646.22;6218395;28;20363;-58
2023/10/05 10:08:29;;;;;;;4.57;2.00;;;;;;;17.60;53.25;98644.88;6209546;28;20232;-58
2023/10/05 10:11:32;;;;;;;4.40;1.90;;;;;;;17.71;53.82;98638.44;6203432;28;20220;-58
2023/10/05 10:14:34;;;;;;;3.10;1.70;;;;;;;17.77;53.25;98637.41;6207944;28;20250;-58
2023/10/05 10:17:36;;;;;;;4.80;1.80;;;;;;;17.97;51.25;98631.25;6212491;28;20290;-61
2023/10/05 10:20:38;;;;;;;3.47;2.03;;;;;;;18.18;49.73;98637.50;6188755;28;20228;-56
2023/10/05 10:23:49;;;;;;;4.53;2.03;;;;;;;18.33;48.93;98632.13;6207860;28;20234;-59
2023/10/05 10:27:08;;;;;;;3.13;1.90;;;;;;;18.31;48.63;98626.19;6216853;28;20806;-58
2023/10/05 10:30:16;;;;;;;3.10;1.83;;;;;;;18.34;48.21;98619.47;6205044;28;20583;-59
2023/10/05 10:33:30;;;;;;;3.67;2.20;;;;;;;18.18;49.66;98614.06;6192216;28;20680;-58
2023/10/05 10:36:59;;;;;;;4.30;1.80;;;;;;;18.18;49.52;98600.56;6204058;28;20236;-58
2023/10/05 10:40:01;;;;;;;3.83;2.37;;;;;;;18.26;49.00;98608.09;6209643;28;20240;-56
2023/10/05 10:46:19;;;;;;;7.90;1.73;;;;;;;18.24;50.51;98588.69;6210719;28;20760;-57
2023/10/05 10:49:22;;;;;;;3.43;1.83;;;;;;;18.37;49.51;98581.94;6213717;28;20756;-58
2023/10/05 10:52:25;;;;;;;4.13;2.27;;;;;;;18.42;49.28;98583.81;6214363;28;20244;-58
2023/10/05 10:55:42;;;;;;;3.37;1.90;;;;;;;18.16;50.32;98564.94;6193206;28;20233;-57
2023/10/05 10:58:45;;;;;;;5.33;1.93;;;;;;;18.37;50.34;98587.34;6208278;28;20244;-58
2023/10/05 11:01:53;;;;;;;2.80;1.90;;;;;;;18.43;49.70;98578.19;6207409;28;20732;-57
2023/10/05 11:05:03;;;;;;;3.17;2.13;;;;;;;18.36;50.52;98579.53;6209346;28;20224;-57
2023/10/05 11:08:11;;;;;;;2.63;1.83;;;;;;;18.38;49.87;98566.59;6212976;28;20231;-58
2023/10/05 11:11:16;;;;;;;4.03;1.93;;;;;;;18.55;50.09;98567.09;6207007;28;20732;-59
2023/10/05 11:14:26;;;;;;;4.13;1.70;;;;;;;18.63;49.95;98558.47;6202075;28;20255;-59
2023/10/05 11:17:36;;;;;;;5.40;2.27;;;;;;;18.63;50.64;98563.06;6179566;28;20225;-58
2023/10/05 11:20:38;;;;;;;3.13;1.70;;;;;;;18.74;50.49;98560.09;6183049;28;20303;-58
2023/10/05 11:23:48;;;;;;;5.30;2.10;;;;;;;18.60;49.73;98532.00;6189011;28;20832;-56
2023/10/05 11:29:59;;;;;;;4.60;2.13;;;;;;;18.70;49.49;98550.09;6191644;28;20708;-60
2023/10/05 11:33:15;;;;;;;2.67;2.07;;;;;;;18.59;50.37;98548.47;6171675;28;20606;-58
2023/10/05 11:36:44;;;;;;;3.43;2.10;;;;;;;18.58;51.50;98536.88;6197116;28;20229;-58
2023/10/05 11:39:50;;;;;;;2.60;1.87;;;;;;;18.54;51.01;98531.22;6190118;28;20728;-59
2023/10/05 11:42:54;;;;;;;4.00;1.70;;;;;;;18.55;51.18;98529.31;6185926;28;20242;-58
2023/10/05 11:45:57;;;;;;;2.70;2.07;;;;;;;18.75;49.77;98529.31;6186191;28;20712;-59
2023/10/05 11:49:04;;;;;;;3.07;2.00;;;;;;;18.71;49.18;98528.22;6188724;28;20806;-58
2023/10/05 11:52:11;;;;;;;3.63;1.90;;;;;;;18.71;49.54;98522.03;6195831;28;20231;-58
2023/10/05 11:55:14;;;;;;;3.60;2.20;;;;;;;18.69;49.16;98514.22;6197743;28;20728;-58
2023/10/05 11:58:18;;;;;;;3.60;2.00;;;;;;;18.92;49.56;98528.19;6201203;28;20248;-57
2023/10/05 12:01:20;;;;;;;4.63;2.40;;;;;;;18.90;48.51;98530.34;6188764;28;20252;-55
2023/10/05 12:04:31;;;;;;;3.23;2.17;;;;;;;18.96;50.06;98526.53;6178543;28;20698;-55
2023/10/05 12:07:33;;;;;;;3.63;2.30;;;;;;;19.08;48.93;98518.94;6180336;28;20237;-55
2023/10/05 12:10:35;;;;;;;3.00;1.90;;;;;;;19.12;50.52;98530.00;6183876;28;20724;-58
2023/10/05 12:13:38;;;;;;;2.43;1.80;;;;;;;19.19;49.24;98527.81;6188669;28;20239;-56
2023/10/05 12:16:40;;;;;;;2.87;1.90;;;;;;;19.29;49.94;98508.84;6192572;28;20232;-57
2023/10/05 12:19:43;;;;;;;3.93;1.90;;;;;;;19.54;47.61;98508.69;6218509;28;20629;-58
2023/10/05 12:22:45;;;;;;;4.53;2.40;;;;;;;19.69;47.11;98515.94;6188565;28;20375;-58
2023/10/05 12:25:49;;;;;;;3.67;2.10;;;;;;;19.86;46.83;98523.69;6167237;28;20240;-59
2023/10/05 12:28:54;;;;;;;2.73;1.50;;;;;;;19.80;46.65;98522.06;6186975;28;20331;-58
2023/10/05 12:32:01;;;;;;;3.30;2.20;;;;;;;19.73;47.36;98517.00;6185462;28;20696;-58
2023/10/05 12:35:06;;;;;;;4.20;2.20;;;;;;;19.70;47.25;98509.44;6219267;28;20241;-58
2023/10/05 12:38:10;;;;;;;2.97;1.90;;;;;;;19.72;48.07;98509.19;6179862;28;20656;-57
2023/10/05 12:41:15;;;;;;;3.03;1.77;;;;;;;19.65;47.93;98506.75;6184544;28;20594;-59
2023/10/05 12:44:17;;;;;;;3.00;1.90;;;;;;;19.57;46.33;98488.44;6199016;28;20229;-59
2023/10/05 12:47:19;;;;;;;4.97;2.20;;;;;;;19.69;48.13;98507.03;6192063;28;20736;-58
2023/10/05 12:50:24;;;;;;;3.67;2.10;;;;;;;19.81;46.36;98512.91;6183270;28;20312;-58
2023/10/05 12:53:28;;;;;;;5.87;2.53;;;;;;;19.81;46.10;98508.28;6186613;28;20584;-59
2023/10/05 12:56:30;;;;;;;3.10;2.20;;;;;;;19.70;46.66;98508.63;6191070;28;20232;-59
2023/10/05 12:59:32;;;;;;;3.53;2.10;;;;;;;19.64;46.57;98496.25;6189424;28;20696;-59
2023/10/05 13:02:34;;;;;;;3.13;2.20;;;;;;;19.70;47.21;98500.53;6190327;28;20225;-58
2023/10/05 13:05:47;;;;;;;3.77;2.07;;;;;;;19.68;45.18;98503.50;6198244;28;20239;-57
2023/10/05 13:08:50;;;;;;;6.83;2.40;;;;;;;19.61;46.39;98492.22;6196944;28;20228;-56
2023/10/05 13:11:53;;;;;;;2.90;1.90;;;;;;;19.64;45.22;98491.63;6195634;28;20282;-58
2023/10/05 13:14:55;;;;;;;3.43;1.90;;;;;;;19.68;45.10;98484.59;6187254;28;20232;-57
2023/10/05 13:17:58;;;;;;;3.80;2.37;;;;;;;19.59;45.37;98483.53;6193853;28;20817;-57
2023/10/05 13:21:01;;;;;;;2.53;1.93;;;;;;;19.59;47.38;98488.94;6183528;28;20248;-58
2023/10/05 13:24:04;;;;;;;3.73;2.23;;;;;;;19.36;46.45;98476.09;6104197;28;20236;-55
2023/10/05 13:27:07;;;;;;;2.00;1.57;;;;;;;19.28;47.93;98474.81;6188586;28;20227;-57
2023/10/05 13:30:11;;;;;;;4.10;2.50;;;;;;;19.19;48.52;98469.19;6198248;28;20552;-56
2023/10/05 13:33:29;;;;;;;3.70;2.00;;;;;;;19.17;46.70;98465.97;6183766;28;20331;-58
2023/10/05 13:36:33;;;;;;;2.57;1.83;;;;;;;19.15;48.15;98461.91;6174776;28;20233;-56
2023/10/05 13:39:35;;;;;;;4.47;2.10;;;;;;;18.97;50.43;98463.38;6186317;28;20228;-56
2023/10/05 13:42:38;;;;;;;2.93;1.93;;;;;;;19.00;46.67;98441.19;6184060;28;20748;-57
2023/10/05 13:45:45;;;;;;;2.57;1.50;;;;;;;19.06;48.71;98469.78;6191076;28;20716;-58
2023/10/05 13:48:54;;;;;;;4.00;2.30;;;;;;;19.12;46.13;98460.59;6185018;28;20320;-56
2023/10/05 13:51:58;;;;;;;3.23;2.10;;;;;;;19.23;44.43;98467.53;6197064;28;20229;-57
2023/10/05 13:55:01;;;;;;;3.37;2.03;;;;;;;19.24;44.37;98455.66;6192605;28;20334;-58
2023/10/05 13:58:05;;;;;;;3.87;1.97;;;;;;;19.20;45.33;98460.00;6177124;28;20240;-57
2023/10/05 14:01:15;;;;;;;3.37;2.13;;;;;;;18.99;47.48;98451.19;6181450;28;21125;-57
2023/10/05 14:04:19;;;;;;;3.37;2.17;;;;;;;18.85;48.00;98452.06;6183954;28;20212;-56
2023/10/05 14:07:23;;;;;;;2.97;1.80;;;;;;;18.64;50.49;98445.91;6191453;28;20229;-55
2023/10/05 14:10:26;;;;;;;2.40;1.73;;;;;;;18.51;50.71;98450.78;6190108;28;20866;-58
2023/10/05 14:13:31;;;;;;;2.97;1.90;;;;;;;18.45;52.14;98451.09;6196980;28;20278;-56
2023/10/05 14:16:44;;;;;;;4.00;2.20;;;;;;;18.33;51.69;98447.91;6198999;28;20892;-54
2023/10/05 14:19:47;;;;;;;2.67;1.83;;;;;;;18.33;50.78;98456.78;6175834;28;20237;-56
2023/10/05 14:22:49;;;;;;;2.03;1.83;;;;;;;18.35;50.45;98448.41;6182920;28;20748;-58
2023/10/05 14:25:51;;;;;;;3.33;2.20;;;;;;;18.29;50.83;98461.91;6176597;28;20791;-58
2023/10/05 14:28:55;;;;;;;3.10;2.10;;;;;;;18.23;49.35;98456.81;6190185;28;20272;-56
2023/10/05 14:32:02;;;;;;;2.87;1.80;;;;;;;18.23;50.25;98446.84;6191812;28;20240;-55
2023/10/05 14:35:07;;;;;;;2.70;2.10;;;;;;;18.24;50.57;98459.22;6188487;28;20247;-58
2023/10/05 14:38:10;;;;;;;3.53;1.90;;;;;;;18.28;50.37;98457.59;6194238;28;20244;-55
2023/10/05 14:41:13;;;;;;;4.83;2.00;;;;;;;18.39;49.74;98465.69;6196442;28;20248;-57
2023/10/05 14:44:16;;;;;;;5.33;2.30;;;;;;;18.38;48.35;98458.69;6176405;28;20714;-51
2023/10/05 14:47:19;;;;;;;3.47;2.03;;;;;;;18.47;47.69;98468.63;6180413;28;20233;-58
2023/10/05 14:50:21;;;;;;;4.33;2.20;;;;;;;18.47;47.28;98462.41;6191172;28;20248;-57